createdAt,value
2017-08-29T00:00:12.519Z,17.10
2017-08-29T00:02:38.692Z,17.10
2017-08-29T00:05:04.882Z,17.10
2017-08-29T00:07:31.051Z,17.20
2017-08-29T00:09:57.200Z,17.10
2017-08-29T00:12:23.327Z,17.20
2017-08-29T00:14:49.483Z,17.10
2017-08-29T00:17:15.682Z,17.10
2017-08-29T00:19:41.855Z,17.10
2017-08-29T00:22:07.991Z,17.10
2017-08-29T00:24:34.163Z,17.10
2017-08-29T00:27:00.302Z,17.10
2017-08-29T00:29:26.526Z,17.00
2017-08-29T00:31:52.675Z,17.00
2017-08-29T00:34:18.880Z,17.00
2017-08-29T00:36:45.026Z,16.80
2017-08-29T00:39:11.211Z,16.60
2017-08-29T00:41:37.362Z,16.70
2017-08-29T00:44:03.535Z,16.80
2017-08-29T00:46:29.680Z,16.80
2017-08-29T00:48:55.868Z,16.80
2017-08-29T00:51:22.122Z,16.50
2017-08-29T00:53:48.285Z,16.40
2017-08-29T00:56:14.456Z,16.50
2017-08-29T00:58:40.648Z,16.60
2017-08-29T01:01:06.842Z,16.60
2017-08-29T01:03:33.007Z,16.60
2017-08-29T01:05:59.175Z,16.60
2017-08-29T01:08:25.352Z,16.50
2017-08-29T01:10:52.587Z,16.50
2017-08-29T01:13:18.755Z,16.50
2017-08-29T01:15:44.981Z,16.40
2017-08-29T01:18:11.159Z,16.40
2017-08-29T01:20:37.342Z,16.40
2017-08-29T01:23:03.567Z,16.50
2017-08-29T01:25:29.785Z,16.50
2017-08-29T01:27:55.967Z,16.50
2017-08-29T01:30:22.183Z,16.50
2017-08-29T01:32:48.402Z,16.50
2017-08-29T01:35:14.648Z,16.50
2017-08-29T01:37:40.835Z,16.50
2017-08-29T01:40:07.077Z,16.40
2017-08-29T01:42:33.265Z,16.40
2017-08-29T01:44:59.467Z,16.40
2017-08-29T01:47:25.662Z,16.40
2017-08-29T01:49:51.843Z,16.40
2017-08-29T01:52:18.030Z,16.40
2017-08-29T01:54:44.215Z,16.40
2017-08-29T01:57:10.412Z,16.40
2017-08-29T01:59:36.591Z,16.40
2017-08-29T02:02:02.808Z,16.40
2017-08-29T02:04:28.977Z,16.40
2017-08-29T02:06:55.153Z,16.40
2017-08-29T02:09:21.458Z,16.40
2017-08-29T02:11:47.651Z,16.40
2017-08-29T02:14:13.806Z,16.40
2017-08-29T02:16:39.963Z,16.40
2017-08-29T02:19:06.098Z,16.50
2017-08-29T02:21:32.239Z,16.50
2017-08-29T02:23:58.406Z,16.50
2017-08-29T02:26:24.572Z,16.50
2017-08-29T02:28:50.884Z,16.50
2017-08-29T02:31:17.046Z,16.50
2017-08-29T02:33:43.199Z,16.50
2017-08-29T02:36:09.404Z,16.50
2017-08-29T02:38:35.564Z,16.50
2017-08-29T02:41:01.702Z,16.40
2017-08-29T02:43:27.854Z,16.50
2017-08-29T02:45:54.026Z,16.50
2017-08-29T02:48:20.207Z,16.50
2017-08-29T02:50:46.330Z,16.50
2017-08-29T02:53:12.524Z,16.50
2017-08-29T02:55:38.695Z,16.40
2017-08-29T02:58:04.880Z,16.40
2017-08-29T03:00:31.015Z,16.40
2017-08-29T03:02:57.184Z,16.40
2017-08-29T03:05:23.312Z,16.40
2017-08-29T03:07:49.461Z,16.40
2017-08-29T03:10:15.586Z,16.40
2017-08-29T03:12:41.760Z,16.40
2017-08-29T03:15:07.919Z,16.40
2017-08-29T03:17:34.084Z,16.40
2017-08-29T03:20:00.242Z,16.30
2017-08-29T03:22:26.427Z,16.30
2017-08-29T03:24:52.603Z,16.20
2017-08-29T03:27:18.782Z,16.30
2017-08-29T03:29:44.976Z,16.20
2017-08-29T03:32:11.183Z,16.20
2017-08-29T03:34:37.339Z,16.20
2017-08-29T03:37:03.478Z,16.20
2017-08-29T03:39:29.630Z,16.20
2017-08-29T03:41:55.804Z,16.20
2017-08-29T03:44:22.025Z,16.20
2017-08-29T03:46:48.163Z,16.20
2017-08-29T03:49:14.339Z,16.20
2017-08-29T03:51:40.559Z,16.20
2017-08-29T03:54:06.758Z,16.20
2017-08-29T03:56:32.943Z,16.10
2017-08-29T03:58:59.144Z,16.10
2017-08-29T04:01:25.291Z,16.10
2017-08-29T04:03:51.468Z,16.10
2017-08-29T04:06:17.614Z,16.10
2017-08-29T04:08:43.801Z,16.10
2017-08-29T04:11:09.952Z,16.10
2017-08-29T04:13:36.136Z,16.10
2017-08-29T04:16:02.274Z,16.10
2017-08-29T04:18:28.427Z,16.10
2017-08-29T04:20:54.608Z,16.00
2017-08-29T04:23:20.772Z,16.10
2017-08-29T04:25:46.910Z,16.00
2017-08-29T04:28:13.130Z,16.00
2017-08-29T04:30:39.293Z,16.00
2017-08-29T04:33:05.440Z,16.00
2017-08-29T04:35:31.610Z,16.00
2017-08-29T04:37:57.775Z,16.00
2017-08-29T04:40:23.954Z,16.00
2017-08-29T04:42:50.107Z,15.90
2017-08-29T04:45:16.312Z,15.90
2017-08-29T04:47:42.476Z,15.90
2017-08-29T04:50:08.651Z,15.90
2017-08-29T04:52:34.798Z,15.90
2017-08-29T04:55:01.007Z,15.90
2017-08-29T04:57:27.196Z,15.90
2017-08-29T04:59:53.386Z,15.90
2017-08-29T05:02:19.555Z,15.90
2017-08-29T05:04:45.712Z,15.90
2017-08-29T05:07:11.942Z,15.90
2017-08-29T05:09:38.119Z,16.00
2017-08-29T05:12:04.327Z,16.00
2017-08-29T05:14:30.479Z,16.00
2017-08-29T05:16:56.670Z,16.00
2017-08-29T05:19:22.929Z,16.00
2017-08-29T05:21:49.720Z,16.10
2017-08-29T05:24:15.912Z,16.10
2017-08-29T05:26:42.114Z,16.10
2017-08-29T05:29:08.302Z,16.10
2017-08-29T05:31:34.455Z,16.10
2017-08-29T05:34:00.588Z,16.20
2017-08-29T05:36:26.772Z,16.30
2017-08-29T05:38:52.933Z,16.30
2017-08-29T05:41:19.115Z,16.30
2017-08-29T05:43:45.247Z,16.30
2017-08-29T05:46:11.457Z,16.40
2017-08-29T05:48:37.675Z,16.40
2017-08-29T05:51:04.018Z,16.60
2017-08-29T05:53:30.176Z,16.70
2017-08-29T05:55:56.404Z,16.80
2017-08-29T05:58:22.574Z,16.90
2017-08-29T06:00:48.754Z,17.00
2017-08-29T06:03:14.948Z,17.10
2017-08-29T06:05:41.187Z,17.20
2017-08-29T06:08:07.360Z,17.30
2017-08-29T06:10:33.544Z,17.30
2017-08-29T06:12:59.720Z,17.30
2017-08-29T06:15:25.884Z,17.40
2017-08-29T06:17:52.103Z,17.60
2017-08-29T06:20:18.239Z,17.60
2017-08-29T06:22:44.400Z,17.60
2017-08-29T06:25:11.777Z,17.60
2017-08-29T06:27:37.958Z,17.70
2017-08-29T06:30:04.112Z,17.70
2017-08-29T06:32:30.299Z,17.80
2017-08-29T06:34:56.522Z,17.90
2017-08-29T06:37:22.708Z,17.90
2017-08-29T06:39:48.835Z,18.00
2017-08-29T06:42:15.021Z,18.10
2017-08-29T06:44:41.142Z,18.20
2017-08-29T06:47:07.259Z,18.30
2017-08-29T06:49:33.455Z,18.30
2017-08-29T06:51:59.624Z,18.40
2017-08-29T06:54:25.812Z,18.40
2017-08-29T06:56:51.965Z,18.50
2017-08-29T06:59:18.114Z,18.60
2017-08-29T07:01:44.252Z,18.70
2017-08-29T07:04:10.420Z,18.70
2017-08-29T07:06:36.559Z,18.80
2017-08-29T07:09:02.756Z,18.80
2017-08-29T07:11:29.143Z,18.90
2017-08-29T07:13:55.325Z,19.00
2017-08-29T07:16:21.525Z,19.10
2017-08-29T07:18:47.699Z,19.20
2017-08-29T07:21:13.880Z,19.30
2017-08-29T07:23:40.028Z,19.30
2017-08-29T07:26:06.191Z,19.40
2017-08-29T07:28:32.334Z,19.40
2017-08-29T07:30:58.468Z,19.50
2017-08-29T07:33:24.647Z,19.60
2017-08-29T07:35:50.814Z,19.70
2017-08-29T07:38:16.940Z,19.70
2017-08-29T07:40:43.074Z,19.80
2017-08-29T07:43:09.262Z,19.80
2017-08-29T07:45:35.483Z,19.90
2017-08-29T07:48:01.651Z,20.00
2017-08-29T07:50:27.838Z,20.10
2017-08-29T07:52:54.003Z,20.20
2017-08-29T07:55:20.208Z,20.20
2017-08-29T07:57:46.375Z,20.30
2017-08-29T08:00:12.536Z,20.40
2017-08-29T08:02:38.687Z,20.50
2017-08-29T08:05:05.690Z,20.60
2017-08-29T08:07:31.936Z,20.60
2017-08-29T08:09:58.356Z,20.70
2017-08-29T08:12:24.534Z,20.80
2017-08-29T08:14:50.753Z,20.90
2017-08-29T08:17:16.883Z,21.00
2017-08-29T08:19:43.055Z,21.00
2017-08-29T08:22:09.195Z,21.10
2017-08-29T08:24:35.342Z,21.20
2017-08-29T08:27:01.538Z,21.30
2017-08-29T08:29:30.033Z,21.30
2017-08-29T08:31:56.234Z,21.30
2017-08-29T08:34:22.374Z,21.40
2017-08-29T08:36:48.514Z,21.50
2017-08-29T08:39:15.991Z,21.60
2017-08-29T08:41:42.195Z,21.60
2017-08-29T08:44:08.351Z,21.60
2017-08-29T08:46:34.539Z,21.80
2017-08-29T08:49:00.692Z,21.80
2017-08-29T08:51:26.852Z,21.90
2017-08-29T08:53:52.994Z,21.90
2017-08-29T08:56:19.212Z,22.00
2017-08-29T08:58:45.491Z,22.00
2017-08-29T09:01:11.655Z,22.10
2017-08-29T09:03:37.827Z,22.20
2017-08-29T09:06:03.983Z,22.20
2017-08-29T09:08:30.116Z,22.30
2017-08-29T09:10:56.852Z,22.40
2017-08-29T09:13:23.006Z,22.50
2017-08-29T09:15:49.243Z,22.50
2017-08-29T09:18:15.412Z,22.50
2017-08-29T09:20:41.607Z,22.60
2017-08-29T09:23:07.783Z,22.60
2017-08-29T09:25:33.910Z,22.70
2017-08-29T09:28:00.105Z,22.90
2017-08-29T09:30:26.288Z,22.90
2017-08-29T09:32:52.462Z,23.00
2017-08-29T09:35:18.585Z,23.10
2017-08-29T09:37:44.750Z,23.20
2017-08-29T09:40:10.893Z,23.30
2017-08-29T09:42:37.059Z,23.30
2017-08-29T09:45:03.210Z,23.40
2017-08-29T09:47:29.464Z,23.40
2017-08-29T09:49:55.660Z,23.50
2017-08-29T09:52:21.850Z,23.50
2017-08-29T09:54:48.027Z,23.60
2017-08-29T09:57:14.232Z,23.70
2017-08-29T09:59:40.435Z,23.80
2017-08-29T10:02:06.592Z,23.90
2017-08-29T10:04:32.735Z,23.90
2017-08-29T10:06:58.906Z,24.00
2017-08-29T10:09:25.064Z,24.10
2017-08-29T10:11:51.318Z,24.10
2017-08-29T10:14:17.487Z,24.20
2017-08-29T10:16:43.633Z,24.20
2017-08-29T10:19:09.776Z,24.40
2017-08-29T10:21:35.947Z,24.40
2017-08-29T10:24:02.133Z,24.50
2017-08-29T10:26:28.254Z,24.70
2017-08-29T10:28:54.421Z,24.90
2017-08-29T10:31:20.548Z,25.00
2017-08-29T10:33:46.708Z,25.10
2017-08-29T10:36:12.891Z,25.20
2017-08-29T10:38:39.080Z,25.30
2017-08-29T10:41:05.211Z,25.30
2017-08-29T10:43:31.359Z,25.50
2017-08-29T10:45:57.511Z,25.60
2017-08-29T10:48:23.654Z,25.70
2017-08-29T10:50:50.635Z,25.80
2017-08-29T10:53:16.799Z,25.80
2017-08-29T10:55:42.982Z,26.00
2017-08-29T10:58:09.200Z,26.10
2017-08-29T11:00:35.343Z,26.20
2017-08-29T11:03:01.511Z,26.30
2017-08-29T11:05:27.663Z,26.40
2017-08-29T11:07:53.882Z,26.50
2017-08-29T11:10:20.057Z,26.60
2017-08-29T11:12:46.219Z,26.70
2017-08-29T11:15:12.371Z,26.80
2017-08-29T11:17:38.526Z,27.00
2017-08-29T11:20:04.702Z,27.10
2017-08-29T11:22:30.886Z,27.20
2017-08-29T11:24:57.067Z,27.30
2017-08-29T11:27:23.234Z,27.40
2017-08-29T11:29:49.418Z,27.60
2017-08-29T11:32:15.602Z,27.70
2017-08-29T11:34:41.783Z,27.90
2017-08-29T11:37:08.427Z,28.00
2017-08-29T11:39:34.718Z,28.10
2017-08-29T11:42:00.879Z,28.20
2017-08-29T11:44:27.070Z,28.30
2017-08-29T11:46:53.243Z,28.50
2017-08-29T11:49:19.451Z,28.60
2017-08-29T11:51:45.611Z,28.80
2017-08-29T11:54:11.800Z,29.00
2017-08-29T11:56:37.955Z,29.20
2017-08-29T11:59:04.131Z,29.40
2017-08-29T12:01:30.293Z,29.60
2017-08-29T12:03:56.443Z,29.80
2017-08-29T12:06:22.611Z,30.00
2017-08-29T12:08:48.768Z,30.20
2017-08-29T12:11:14.965Z,30.40
2017-08-29T12:13:41.086Z,30.60
2017-08-29T12:16:07.247Z,30.80
2017-08-29T12:18:33.382Z,31.00
2017-08-29T12:20:59.554Z,31.10
2017-08-29T12:23:25.682Z,31.30
2017-08-29T12:25:51.851Z,31.60
2017-08-29T12:28:17.978Z,31.90
2017-08-29T12:30:44.118Z,32.00
2017-08-29T12:33:10.230Z,31.90
2017-08-29T12:35:36.379Z,32.20
2017-08-29T12:38:02.500Z,32.30
2017-08-29T12:40:28.641Z,32.60
2017-08-29T12:42:54.828Z,32.70
2017-08-29T12:45:20.995Z,32.00
2017-08-29T12:47:47.143Z,32.30
2017-08-29T12:50:13.282Z,32.60
2017-08-29T12:52:39.403Z,32.70
2017-08-29T12:55:05.595Z,33.00
2017-08-29T12:57:31.771Z,33.40
2017-08-29T12:59:57.974Z,33.50
2017-08-29T13:02:24.127Z,33.80
2017-08-29T13:04:50.264Z,33.90
2017-08-29T13:07:16.422Z,34.00
2017-08-29T13:09:42.543Z,33.80
2017-08-29T13:12:09.604Z,33.80
2017-08-29T13:14:36.426Z,33.80
2017-08-29T13:17:02.599Z,33.20
2017-08-29T13:19:28.710Z,33.20
2017-08-29T13:21:54.871Z,33.10
2017-08-29T13:24:21.163Z,32.90
2017-08-29T13:26:47.367Z,32.70
2017-08-29T13:29:13.508Z,32.40
2017-08-29T13:31:39.668Z,32.10
2017-08-29T13:34:05.793Z,31.90
2017-08-29T13:36:31.925Z,31.60
2017-08-29T13:38:58.083Z,31.40
2017-08-29T13:41:24.219Z,31.30
2017-08-29T13:43:50.360Z,31.10
2017-08-29T13:46:16.604Z,31.00
2017-08-29T13:48:42.760Z,30.70
2017-08-29T13:51:08.890Z,30.50
2017-08-29T13:53:35.023Z,30.60
2017-08-29T13:56:03.063Z,30.50
2017-08-29T13:58:29.272Z,30.40
2017-08-29T14:00:57.740Z,30.20
2017-08-29T14:03:23.906Z,29.90
2017-08-29T14:05:50.035Z,29.70
2017-08-29T14:08:16.179Z,29.70
2017-08-29T14:10:42.299Z,29.50
2017-08-29T14:13:08.434Z,29.40
2017-08-29T14:15:34.574Z,29.40
2017-08-29T14:18:00.755Z,29.40
2017-08-29T14:20:26.894Z,29.40
2017-08-29T14:22:53.119Z,29.30
2017-08-29T14:25:19.328Z,29.30
2017-08-29T14:27:45.562Z,29.30
2017-08-29T14:30:11.731Z,29.10
2017-08-29T14:32:37.899Z,29.10
2017-08-29T14:35:04.026Z,29.00
2017-08-29T14:37:30.179Z,29.00
2017-08-29T14:39:56.318Z,29.00
2017-08-29T14:42:22.451Z,28.90
2017-08-29T14:44:48.594Z,28.80
2017-08-29T14:50:22.827Z,28.90
2017-08-29T14:52:49.081Z,28.80
2017-08-29T14:55:15.231Z,28.80
2017-08-29T14:57:44.547Z,28.70
2017-08-29T15:00:10.731Z,28.60
2017-08-29T15:02:36.931Z,28.70
2017-08-29T15:05:03.083Z,28.70
2017-08-29T15:07:29.207Z,28.70
2017-08-29T15:09:55.350Z,28.60
2017-08-29T15:12:22.582Z,28.50
2017-08-29T15:14:48.756Z,28.40
2017-08-29T15:17:14.872Z,28.40
2017-08-29T15:19:41.004Z,28.50
2017-08-29T15:22:07.135Z,28.40
2017-08-29T15:24:33.335Z,28.10
2017-08-29T15:26:59.463Z,28.10
2017-08-29T15:29:25.725Z,28.20
2017-08-29T15:31:51.883Z,28.20
2017-08-29T15:34:18.041Z,28.20
2017-08-29T15:36:44.230Z,28.30
2017-08-29T15:39:10.392Z,28.10
2017-08-29T15:41:36.502Z,28.20
2017-08-29T15:44:02.708Z,28.20
2017-08-29T15:46:28.867Z,28.20
2017-08-29T15:48:56.011Z,28.10
2017-08-29T15:51:22.162Z,28.00
2017-08-29T15:53:48.371Z,28.10
2017-08-29T15:56:16.846Z,28.00
2017-08-29T15:58:43.095Z,28.00
2017-08-29T16:01:09.274Z,27.80
2017-08-29T16:03:35.429Z,27.70
2017-08-29T16:06:01.579Z,27.60
2017-08-29T16:08:27.722Z,27.50
2017-08-29T16:10:54.140Z,27.60
2017-08-29T16:13:20.443Z,27.60
2017-08-29T16:15:46.623Z,27.50
2017-08-29T16:18:12.792Z,27.50
2017-08-29T16:20:38.951Z,27.60
2017-08-29T16:23:05.080Z,27.40
2017-08-29T16:25:31.246Z,27.40
2017-08-29T16:27:57.409Z,27.30
2017-08-29T16:30:23.570Z,27.30
2017-08-29T16:32:49.711Z,27.30
2017-08-29T16:35:15.846Z,27.30
2017-08-29T16:37:42.011Z,27.30
2017-08-29T16:40:08.174Z,27.20
2017-08-29T16:42:34.351Z,27.10
2017-08-29T16:45:00.487Z,27.10
2017-08-29T16:47:26.657Z,27.10
2017-08-29T16:49:52.971Z,27.10
2017-08-29T16:52:19.135Z,27.00
2017-08-29T16:54:45.562Z,27.00
2017-08-29T16:57:11.822Z,27.00
2017-08-29T16:59:37.977Z,26.90
2017-08-29T17:02:04.123Z,26.90
2017-08-29T17:04:30.262Z,26.80
2017-08-29T17:06:56.427Z,26.80
2017-08-29T17:09:22.709Z,26.60
2017-08-29T17:11:48.876Z,26.60
2017-08-29T17:14:16.289Z,26.50
2017-08-29T17:16:42.482Z,26.40
2017-08-29T17:19:08.658Z,26.40
2017-08-29T17:21:34.822Z,26.30
2017-08-29T17:24:01.016Z,26.20
2017-08-29T17:26:27.219Z,26.20
2017-08-29T17:28:53.380Z,26.20
2017-08-29T17:31:19.512Z,26.10
2017-08-29T17:33:45.651Z,26.00
2017-08-29T17:36:11.783Z,26.00
2017-08-29T17:38:37.933Z,25.90
2017-08-29T17:41:04.083Z,25.90
2017-08-29T17:43:30.258Z,25.80
2017-08-29T17:45:56.395Z,25.80
2017-08-29T17:48:22.573Z,25.70
2017-08-29T17:50:48.727Z,25.70
2017-08-29T17:53:14.904Z,25.60
2017-08-29T17:55:41.115Z,25.60
2017-08-29T17:58:07.335Z,25.50
2017-08-29T18:00:33.496Z,25.40
2017-08-29T18:02:59.652Z,25.30
2017-08-29T18:05:25.797Z,25.20
2017-08-29T18:07:51.961Z,25.10
2017-08-29T18:10:18.131Z,25.00
2017-08-29T18:12:44.262Z,24.90
2017-08-29T18:15:10.399Z,24.90
2017-08-29T18:17:36.526Z,24.80
2017-08-29T18:20:02.722Z,24.60
2017-08-29T18:22:28.866Z,24.60
2017-08-29T18:24:55.034Z,24.40
2017-08-29T18:27:21.170Z,24.30
2017-08-29T18:29:47.362Z,24.30
2017-08-29T18:32:13.507Z,24.20
2017-08-29T18:34:39.668Z,24.10
2017-08-29T18:37:05.803Z,24.00
2017-08-29T18:39:31.947Z,23.90
2017-08-29T18:41:58.090Z,23.80
2017-08-29T18:44:24.254Z,23.80
2017-08-29T18:46:50.386Z,23.70
2017-08-29T18:49:16.560Z,23.70
2017-08-29T18:51:42.719Z,23.60
2017-08-29T18:54:08.895Z,23.50
2017-08-29T18:56:35.485Z,23.40
2017-08-29T18:59:02.811Z,23.40
2017-08-29T19:01:28.970Z,23.40
2017-08-29T19:03:55.544Z,23.30
2017-08-29T19:06:21.700Z,23.30
2017-08-29T19:08:47.811Z,23.20
2017-08-29T19:11:13.970Z,23.10
2017-08-29T19:13:40.126Z,23.10
2017-08-29T19:16:06.278Z,23.10
2017-08-29T19:18:32.463Z,23.00
2017-08-29T19:20:58.613Z,22.90
2017-08-29T19:23:24.827Z,22.90
2017-08-29T19:25:51.000Z,22.80
2017-08-29T19:28:17.142Z,22.70
2017-08-29T19:30:43.352Z,22.70
2017-08-29T19:33:09.498Z,22.60
2017-08-29T19:35:35.681Z,22.70
2017-08-29T19:38:01.908Z,22.60
2017-08-29T19:40:28.088Z,22.60
2017-08-29T19:42:54.272Z,22.50
2017-08-29T19:45:20.449Z,22.50
2017-08-29T19:47:46.607Z,22.40
2017-08-29T19:50:12.783Z,22.40
2017-08-29T19:52:38.936Z,22.30
2017-08-29T19:55:05.123Z,22.20
2017-08-29T19:57:31.262Z,22.20
2017-08-29T19:59:57.423Z,22.10
2017-08-29T20:02:23.619Z,22.10
2017-08-29T20:04:49.796Z,22.00
2017-08-29T20:07:15.995Z,22.00
2017-08-29T20:09:42.153Z,22.00
2017-08-29T20:12:08.418Z,21.90
2017-08-29T20:14:34.563Z,21.90
2017-08-29T20:17:00.721Z,21.90
2017-08-29T20:19:26.928Z,21.80
2017-08-29T20:21:54.059Z,21.80
2017-08-29T20:24:20.215Z,21.80
2017-08-29T20:26:46.343Z,21.70
2017-08-29T20:29:12.495Z,21.70
2017-08-29T20:31:38.691Z,21.60
2017-08-29T20:34:04.849Z,21.50
2017-08-29T20:36:30.975Z,21.50
2017-08-29T20:38:57.156Z,21.40
2017-08-29T20:41:23.272Z,21.40
2017-08-29T20:43:49.411Z,21.30
2017-08-29T20:46:15.542Z,21.30
2017-08-29T20:48:41.755Z,21.20
2017-08-29T20:51:07.962Z,21.20
2017-08-29T20:53:34.160Z,21.20
2017-08-29T20:56:00.355Z,21.20
2017-08-29T20:58:26.502Z,21.10
2017-08-29T21:00:52.627Z,21.10
2017-08-29T21:03:19.007Z,21.10
2017-08-29T21:05:45.171Z,21.00
2017-08-29T21:08:11.484Z,20.90
2017-08-29T21:10:37.631Z,20.80
2017-08-29T21:13:03.778Z,20.60
2017-08-29T21:15:29.946Z,20.60
2017-08-29T21:17:56.057Z,20.50
2017-08-29T21:20:22.336Z,20.60
2017-08-29T21:22:48.543Z,20.40
2017-08-29T21:25:14.983Z,20.40
2017-08-29T21:27:41.118Z,20.40
2017-08-29T21:30:07.287Z,20.40
2017-08-29T21:32:33.437Z,20.40
2017-08-29T21:34:59.574Z,20.40
2017-08-29T21:37:25.767Z,20.40
2017-08-29T21:39:51.923Z,20.30
2017-08-29T21:42:18.094Z,20.30
2017-08-29T21:44:44.255Z,20.30
2017-08-29T21:47:10.386Z,20.20
2017-08-29T21:49:36.538Z,20.20
2017-08-29T21:52:02.686Z,20.10
2017-08-29T21:54:28.872Z,20.10
2017-08-29T21:56:55.030Z,20.10
2017-08-29T21:59:21.158Z,20.00
2017-08-29T22:01:47.331Z,20.00
2017-08-29T22:04:13.535Z,20.10
2017-08-29T22:06:39.679Z,20.00
2017-08-29T22:09:05.811Z,20.00
2017-08-29T22:11:31.974Z,20.00
2017-08-29T22:13:58.143Z,20.00
2017-08-29T22:16:24.340Z,20.00
2017-08-29T22:18:50.481Z,20.00
2017-08-29T22:21:16.640Z,19.90
2017-08-29T22:23:42.774Z,19.90
2017-08-29T22:26:08.927Z,19.90
2017-08-29T22:28:35.052Z,19.80
2017-08-29T22:31:01.196Z,19.80
2017-08-29T22:33:27.360Z,19.80
2017-08-29T22:35:53.503Z,19.80
2017-08-29T22:38:19.652Z,19.70
2017-08-29T22:40:45.820Z,19.80
2017-08-29T22:43:11.982Z,19.70
2017-08-29T22:45:38.136Z,19.70
2017-08-29T22:48:04.306Z,19.60
2017-08-29T22:50:30.483Z,19.60
2017-08-29T22:52:56.661Z,19.60
2017-08-29T22:55:22.891Z,19.50
2017-08-29T22:57:49.104Z,19.50
2017-08-29T23:00:15.275Z,19.50
2017-08-29T23:02:41.471Z,19.50
2017-08-29T23:05:07.657Z,19.50
2017-08-29T23:07:33.831Z,19.50
2017-08-29T23:10:00.015Z,19.50
2017-08-29T23:12:26.191Z,19.50
2017-08-29T23:14:52.355Z,19.40
2017-08-29T23:17:18.532Z,19.50
2017-08-29T23:19:44.696Z,19.40
2017-08-29T23:22:10.882Z,19.40
2017-08-29T23:24:37.062Z,19.40
2017-08-29T23:27:03.254Z,19.30
2017-08-29T23:29:29.424Z,19.30
2017-08-29T23:31:55.674Z,19.30
2017-08-29T23:34:21.831Z,19.30
2017-08-29T23:36:47.983Z,19.20
2017-08-29T23:39:14.160Z,19.20
2017-08-29T23:41:40.295Z,19.20
2017-08-29T23:44:06.457Z,19.20
2017-08-29T23:46:32.648Z,19.20
2017-08-29T23:48:58.837Z,19.20
2017-08-29T23:51:24.999Z,19.20
2017-08-29T23:53:51.182Z,19.20
2017-08-29T23:56:17.371Z,19.10
2017-08-29T23:58:43.520Z,19.10
